Time;durP1;ratioP1;P1;durP2;ratioP2;P2;SDS_P1;SDS_P2;PMS_P1;PMS_P2;Temp;Humidity;BMP_temperature;BMP_pressure;BME280_temperature;BME280_humidity;BME280_pressure;Samples;Min_cycle;Max_cycle;Signal;HPM_P1;HPM_P2
2022/07/18 00:01:02;;;;;;;7.93;4.55;;;;;;;18.94;86.50;98750.19;5011240;28;20022;-70
2022/07/18 00:03:27;;;;;;;5.93;4.25;;;;;;;18.85;87.68;98754.94;5011101;28;20033;-69
2022/07/18 00:05:53;;;;;;;5.68;4.03;;;;;;;18.85;86.07;98754.94;5010988;28;20422;-70
2022/07/18 00:08:18;;;;;;;5.68;3.67;;;;;;;18.83;85.50;98757.19;5011880;28;20026;-69
2022/07/18 00:10:44;;;;;;;6.60;4.03;;;;;;;18.78;85.54;98757.38;5013932;28;20018;-70
2022/07/18 00:13:10;;;;;;;4.93;4.03;;;;;;;18.61;86.87;98749.91;5013032;28;20030;-71
2022/07/18 00:15:35;;;;;;;5.65;4.20;;;;;;;18.56;87.04;98754.81;5012348;28;20026;-70
2022/07/18 00:18:01;;;;;;;4.72;4.00;;;;;;;18.49;87.82;98746.13;5011328;28;20412;-71
2022/07/18 00:20:27;;;;;;;6.88;3.97;;;;;;;18.53;87.93;98755.47;5014225;28;20053;-70
2022/07/18 00:22:52;;;;;;;6.55;3.75;;;;;;;18.55;88.19;98753.16;5013820;28;20045;-71
2022/07/18 00:25:18;;;;;;;5.65;4.43;;;;;;;18.49;89.08;98752.53;5011170;28;20026;-70
2022/07/18 00:27:43;;;;;;;17.02;4.15;;;;;;;18.51;88.30;98752.22;5010759;28;20104;-70
2022/07/18 00:30:09;;;;;;;4.90;3.45;;;;;;;18.51;88.59;98760.53;5011025;28;20033;-70
2022/07/18 00:32:35;;;;;;;7.90;4.45;;;;;;;18.48;88.67;98750.06;5010758;28;20363;-70
2022/07/18 00:35:00;;;;;;;4.50;3.72;;;;;;;18.42;89.19;98745.84;5009382;28;20041;-70
2022/07/18 00:37:25;;;;;;;4.57;3.72;;;;;;;18.40;89.74;98748.91;5010520;28;20030;-71
2022/07/18 00:39:51;;;;;;;6.53;4.22;;;;;;;18.38;90.15;98747.63;5010728;28;20069;-70
2022/07/18 00:42:16;;;;;;;7.82;4.38;;;;;;;18.27;91.11;98744.34;5010566;28;20030;-70
2022/07/18 00:44:42;;;;;;;6.07;3.75;;;;;;;18.22;91.96;98752.84;5010674;28;20030;-70
2022/07/18 00:47:07;;;;;;;5.00;3.75;;;;;;;18.20;91.86;98742.06;5010660;28;20045;-70
2022/07/18 00:49:33;;;;;;;5.40;3.90;;;;;;;18.11;92.14;98757.88;5010622;28;20552;-70
2022/07/18 00:51:58;;;;;;;5.93;3.60;;;;;;;18.06;92.54;98751.69;5010323;28;20037;-71
2022/07/18 00:54:24;;;;;;;7.03;3.95;;;;;;;18.05;92.61;98739.78;5010512;28;20026;-71
2022/07/18 00:56:50;;;;;;;5.60;4.20;;;;;;;17.95;93.82;98747.63;5010398;28;20113;-71
2022/07/18 00:59:16;;;;;;;7.47;5.18;;;;;;;17.92;94.84;98746.28;5010345;28;20026;-70
2022/07/18 01:01:46;;;;;;;7.65;4.65;;;;;;;17.94;94.62;98730.19;5010996;28;20022;-70
2022/07/18 01:04:18;;;;;;;5.88;4.50;;;;;;;17.89;94.78;98737.81;5010482;28;20095;-70
2022/07/18 01:06:44;;;;;;;7.22;4.68;;;;;;;17.88;94.97;98739.78;5010222;28;20068;-71
2022/07/18 01:09:10;;;;;;;8.98;5.43;;;;;;;17.99;93.98;98748.56;5010245;28;20046;-71
2022/07/18 01:11:35;;;;;;;5.82;4.40;;;;;;;17.96;94.98;98749.22;5010301;28;20030;-70
2022/07/18 01:14:05;;;;;;;5.45;4.40;;;;;;;17.91;95.34;98754.94;5010279;28;20088;-70
2022/07/18 01:16:31;;;;;;;5.55;4.18;;;;;;;17.96;93.43;98749.22;5010283;28;20084;-70
2022/07/18 01:18:56;;;;;;;5.22;3.90;;;;;;;17.96;93.34;98757.53;5010265;28;20435;-70
2022/07/18 01:21:22;;;;;;;5.57;3.92;;;;;;;17.95;93.09;98755.94;5010047;28;20053;-70
2022/07/18 01:23:47;;;;;;;5.88;4.05;;;;;;;17.91;95.20;98757.69;5010231;28;20065;-70
2022/07/18 01:26:14;;;;;;;5.47;4.03;;;;;;;18.04;92.92;98753.97;5010236;28;20029;-70
2022/07/18 01:28:40;;;;;;;6.55;4.25;;;;;;;18.06;92.82;98760.81;5009904;28;20034;-70
2022/07/18 01:31:06;;;;;;;5.57;3.75;;;;;;;18.00;93.21;98766.84;5011588;28;20541;-70
2022/07/18 01:33:33;;;;;;;6.25;4.05;;;;;;;18.06;92.69;98757.22;5013467;28;20128;-70
2022/07/18 01:36:03;;;;;;;5.93;4.10;;;;;;;18.04;92.65;98756.75;5013507;28;20115;-70
2022/07/18 01:38:29;;;;;;;7.13;4.30;;;;;;;18.08;92.31;98758.53;5013637;28;20057;-70
2022/07/18 01:40:55;;;;;;;7.85;4.35;;;;;;;17.98;92.75;98752.50;4995762;28;20022;-70
2022/07/18 01:43:22;;;;;;;4.90;4.20;;;;;;;17.85;94.38;98759.00;5013385;28;20045;-70
2022/07/18 01:45:47;;;;;;;6.70;5.00;;;;;;;17.65;96.87;98755.69;5013263;28;20339;-70
2022/07/18 01:48:12;;;;;;;5.97;4.43;;;;;;;17.59;98.85;98762.53;5013146;28;20033;-70
2022/07/18 01:50:38;;;;;;;6.00;4.45;;;;;;;17.59;99.73;98756.16;5013229;28;20042;-70
2022/07/18 01:53:03;;;;;;;6.53;4.80;;;;;;;17.56;100.00;98760.41;5013375;28;20057;-70
2022/07/18 01:55:29;;;;;;;5.68;4.18;;;;;;;17.57;100.00;98769.50;5013517;28;20033;-70
2022/07/18 01:57:54;;;;;;;5.53;4.65;;;;;;;17.47;100.00;98764.25;5013274;28;20044;-70
2022/07/18 02:00:19;;;;;;;5.43;4.20;;;;;;;17.59;100.00;98758.94;5013544;28;20033;-71
2022/07/18 02:02:45;;;;;;;5.43;4.70;;;;;;;17.45;100.00;98759.00;5013098;28;20475;-70
2022/07/18 02:05:10;;;;;;;6.07;4.30;;;;;;;17.29;100.00;98757.00;5013141;28;20406;-70
2022/07/18 02:07:38;;;;;;;5.53;4.30;;;;;;;17.22;100.00;98763.00;5013157;28;20037;-70
2022/07/18 02:10:10;;;;;;;7.00;4.70;;;;;;;17.38;100.00;98764.22;5012924;28;20519;-70
2022/07/18 02:12:36;;;;;;;6.35;4.80;;;;;;;17.50;100.00;98766.38;5013187;28;20045;-70
2022/07/18 02:15:04;;;;;;;11.27;4.95;;;;;;;17.55;100.00;98767.06;5012989;28;20552;-70
2022/07/18 02:17:30;;;;;;;6.68;4.45;;;;;;;17.54;100.00;98762.63;5012882;28;20079;-70
2022/07/18 02:19:57;;;;;;;6.00;4.53;;;;;;;17.29;100.00;98757.00;5012788;28;20022;-70
2022/07/18 02:22:23;;;;;;;5.75;4.30;;;;;;;17.13;100.00;98762.16;5012767;28;20092;-70
2022/07/18 02:24:49;;;;;;;7.05;5.03;;;;;;;17.11;100.00;98756.09;5012802;28;20040;-70
2022/07/18 02:27:14;;;;;;;6.10;4.50;;;;;;;17.02;100.00;98764.38;5013315;28;20462;-71
2022/07/18 02:29:40;;;;;;;9.25;4.47;;;;;;;16.94;100.00;98770.69;5015577;28;20029;-70
2022/07/18 02:32:06;;;;;;;5.38;4.07;;;;;;;16.85;100.00;98767.03;5014666;28;20063;-70
2022/07/18 02:34:31;;;;;;;6.03;4.90;;;;;;;16.82;100.00;98775.16;5012513;28;20030;-70
2022/07/18 02:36:56;;;;;;;8.65;4.60;;;;;;;16.83;100.00;98774.00;5012711;28;20120;-70
2022/07/18 02:39:22;;;;;;;7.78;3.95;;;;;;;16.93;100.00;98777.31;5012632;28;20037;-70
2022/07/18 02:41:48;;;;;;;6.40;4.63;;;;;;;16.95;100.00;98788.88;4994711;28;20034;-70
2022/07/18 02:44:14;;;;;;;7.53;4.53;;;;;;;17.18;100.00;98775.81;5011467;28;20038;-70
2022/07/18 02:46:39;;;;;;;5.68;4.10;;;;;;;17.26;100.00;98779.78;5012327;28;20108;-70
2022/07/18 02:49:05;;;;;;;6.30;4.32;;;;;;;17.28;100.00;98780.25;5012359;28;20065;-70
2022/07/18 02:51:30;;;;;;;8.38;5.05;;;;;;;17.28;100.00;98769.19;5012432;28;20032;-71
2022/07/18 02:53:56;;;;;;;7.07;4.45;;;;;;;17.29;100.00;98777.16;5011532;28;20109;-70
2022/07/18 02:56:21;;;;;;;6.90;4.80;;;;;;;17.31;100.00;98771.31;5012078;28;20026;-70
2022/07/18 02:58:47;;;;;;;6.20;4.65;;;;;;;17.27;100.00;98765.63;5012176;28;20084;-70
2022/07/18 03:01:12;;;;;;;8.85;4.45;;;;;;;17.22;100.00;98767.72;5012452;28;20037;-70
2022/07/18 03:03:37;;;;;;;6.32;4.60;;;;;;;17.13;100.00;98765.72;5012151;28;20033;-70
2022/07/18 03:06:03;;;;;;;6.15;4.35;;;;;;;17.19;100.00;98768.34;5011993;28;20049;-70
2022/07/18 03:08:29;;;;;;;6.90;4.43;;;;;;;17.07;100.00;98768.94;5011957;28;20026;-70
2022/07/18 03:10:54;;;;;;;6.28;4.65;;;;;;;17.06;100.00;98776.44;5011851;28;20030;-70
2022/07/18 03:13:19;;;;;;;8.13;5.13;;;;;;;17.10;100.00;98771.88;5011833;28;20065;-70
2022/07/18 03:15:45;;;;;;;6.68;5.07;;;;;;;16.94;100.00;98759.63;5011764;28;20040;-70
2022/07/18 03:18:10;;;;;;;6.30;4.57;;;;;;;16.97;100.00;98761.75;5011917;28;20032;-70
2022/07/18 03:20:35;;;;;;;6.25;4.43;;;;;;;16.95;100.00;98763.16;5011780;28;20121;-70
2022/07/18 03:23:08;;;;;;;5.28;4.40;;;;;;;16.91;100.00;98768.53;5011770;28;20033;-70
2022/07/18 03:25:33;;;;;;;8.63;5.22;;;;;;;16.90;100.00;98772.44;5011767;28;20045;-70
2022/07/18 03:27:59;;;;;;;6.32;4.70;;;;;;;16.91;100.00;98768.53;5011702;28;20463;-70
2022/07/18 03:30:24;;;;;;;6.45;4.65;;;;;;;16.96;100.00;98764.81;5011777;28;20463;-70
2022/07/18 03:32:50;;;;;;;7.03;4.63;;;;;;;16.89;100.00;98773.56;5011481;28;20076;-70
2022/07/18 03:35:15;;;;;;;5.80;4.43;;;;;;;16.86;100.00;98770.59;5011401;28;20050;-70
2022/07/18 03:37:40;;;;;;;7.00;4.88;;;;;;;16.82;100.00;98770.41;5011543;28;20041;-70
2022/07/18 03:40:06;;;;;;;5.70;4.43;;;;;;;16.79;100.00;98760.00;5011501;28;20472;-70
2022/07/18 03:42:32;;;;;;;4.95;4.30;;;;;;;16.65;100.00;98762.03;5011269;28;20038;-70
2022/07/18 03:44:57;;;;;;;5.63;4.60;;;;;;;16.77;100.00;98770.56;5011220;28;20064;-70
2022/07/18 03:47:23;;;;;;;6.80;4.43;;;;;;;16.84;100.00;98768.16;5011380;28;20030;-70
2022/07/18 03:49:48;;;;;;;6.00;4.50;;;;;;;16.81;100.00;98773.50;5009830;28;20097;-70
2022/07/18 03:52:13;;;;;;;7.03;4.28;;;;;;;17.08;100.00;98776.09;5011386;28;20025;-69
2022/07/18 03:54:39;;;;;;;7.57;4.50;;;;;;;17.50;100.00;98785.72;5010846;28;20083;-70
2022/07/18 03:57:04;;;;;;;5.57;4.25;;;;;;;17.75;97.87;98790.56;5011401;28;20065;-70
2022/07/18 03:59:29;;;;;;;4.72;3.92;;;;;;;18.00;94.36;98784.25;5010796;28;20024;-70
2022/07/18 04:01:55;;;;;;;6.43;4.28;;;;;;;18.47;91.67;98790.00;5011622;28;20034;-70
2022/07/18 04:04:21;;;;;;;8.30;3.65;;;;;;;18.85;86.71;98793.75;5011025;28;20100;-70
2022/07/18 04:06:46;;;;;;;7.63;3.80;;;;;;;19.23;83.79;98791.84;5010982;28;20522;-70
2022/07/18 04:09:12;;;;;;;6.47;4.10;;;;;;;19.87;79.13;98802.84;5011136;28;20112;-70
2022/07/18 04:11:37;;;;;;;6.53;3.90;;;;;;;20.20;75.59;98783.53;5011205;28;20113;-70
2022/07/18 04:14:02;;;;;;;5.60;4.00;;;;;;;19.72;78.64;98800.66;5010883;28;20076;-71
2022/07/18 04:16:29;;;;;;;5.57;4.20;;;;;;;19.04;82.60;98796.97;5011134;28;20037;-70
2022/07/18 04:18:54;;;;;;;7.95;3.40;;;;;;;18.60;84.85;98786.28;5011061;28;20022;-70
2022/07/18 04:21:20;;;;;;;6.45;4.05;;;;;;;18.42;87.00;98785.41;5010812;28;20847;-71
2022/07/18 04:23:45;;;;;;;8.13;4.70;;;;;;;18.38;89.97;98792.78;4996823;28;20034;-70
2022/07/18 04:26:10;;;;;;;5.68;4.45;;;;;;;18.57;88.45;98786.94;5010122;28;20180;-69
2022/07/18 04:28:36;;;;;;;10.80;4.20;;;;;;;19.03;84.96;98789.78;5004188;28;20379;-72
2022/07/18 04:31:01;;;;;;;7.10;5.15;;;;;;;19.69;81.54;98790.22;4994399;28;20036;-73
2022/07/18 04:33:27;;;;;;;10.55;4.85;;;;;;;20.88;73.88;98795.25;4976422;28;20082;-73
2022/07/18 04:35:52;;;;;;;6.05;4.60;;;;;;;21.67;69.17;98804.03;4993748;28;20066;-72
2022/07/18 04:38:18;;;;;;;7.45;4.65;;;;;;;21.68;69.82;98800.06;4993323;28;20502;-70
2022/07/18 04:40:43;;;;;;;9.13;5.03;;;;;;;21.82;68.00;98805.31;4997114;28;20006;-70
2022/07/18 04:43:09;;;;;;;5.50;4.60;;;;;;;21.98;67.12;98800.69;5010167;28;20030;-70
2022/07/18 04:45:35;;;;;;;6.25;4.47;;;;;;;21.68;67.67;98800.06;5010308;28;20110;-70
2022/07/18 04:48:02;;;;;;;5.88;5.22;;;;;;;20.55;73.03;98789.69;5010524;28;20471;-70
2022/07/18 04:50:29;;;;;;;5.78;4.25;;;;;;;19.80;78.42;98801.78;5010246;28;20129;-69
2022/07/18 04:52:56;;;;;;;6.20;4.63;;;;;;;19.53;79.98;98800.25;5008486;28;20045;-71
2022/07/18 04:55:22;;;;;;;7.90;4.10;;;;;;;19.64;79.49;98798.75;5002731;28;20057;-70
2022/07/18 04:57:47;;;;;;;6.80;4.05;;;;;;;20.55;74.75;98801.59;4990637;28;20054;-70
2022/07/18 05:00:16;;;;;;;7.85;4.15;;;;;;;21.19;71.40;98801.16;5003229;28;20030;-70
2022/07/18 05:02:43;;;;;;;6.53;4.07;;;;;;;21.22;70.25;98798.53;5010484;28;20041;-69
2022/07/18 05:05:11;;;;;;;6.90;4.88;;;;;;;20.30;75.29;98800.66;5009856;28;20022;-69
2022/07/18 05:07:37;;;;;;;7.85;4.65;;;;;;;19.99;77.00;98794.63;5012319;28;20041;-69
2022/07/18 05:10:07;;;;;;;6.43;4.28;;;;;;;19.98;78.38;98792.19;5013250;28;20036;-72
2022/07/18 05:12:33;;;;;;;6.88;5.03;;;;;;;19.84;78.87;98791.59;5013390;28;20467;-76
2022/07/18 05:14:58;;;;;;;8.02;5.25;;;;;;;19.90;78.31;98795.81;5013842;28;20084;-72
2022/07/18 05:17:23;;;;;;;12.52;5.10;;;;;;;19.99;79.13;98794.63;5013812;28;20025;-69
2022/07/18 05:19:48;;;;;;;5.68;5.05;;;;;;;20.18;77.57;98797.75;5015012;28;20034;-72
2022/07/18 05:22:14;;;;;;;6.05;4.35;;;;;;;20.12;78.46;98795.50;5013768;28;20029;-69
2022/07/18 05:24:39;;;;;;;9.70;4.40;;;;;;;19.83;79.31;98781.66;5013479;28;20033;-72
2022/07/18 05:27:04;;;;;;;7.63;4.53;;;;;;;20.32;77.60;98797.53;4996205;28;20048;-69
2022/07/18 05:29:30;;;;;;;11.93;4.90;;;;;;;20.66;75.64;98790.88;5013714;28;20490;-69
2022/07/18 05:31:56;;;;;;;7.65;5.25;;;;;;;20.66;75.02;98791.69;5013854;28;20483;-68
2022/07/18 05:34:21;;;;;;;7.53;5.03;;;;;;;20.84;73.63;98789.56;5013359;28;20033;-70
2022/07/18 05:36:46;;;;;;;10.57;5.68;;;;;;;20.80;73.30;98785.81;5013474;28;20037;-69
2022/07/18 05:39:12;;;;;;;8.43;4.75;;;;;;;20.58;72.79;98789.78;5013371;28;20022;-68
2022/07/18 05:41:37;;;;;;;6.32;4.88;;;;;;;20.57;75.37;98787.34;5013135;28;20129;-71
2022/07/18 05:44:03;;;;;;;7.13;4.30;;;;;;;20.75;74.64;98794.38;5012488;28;20096;-68
2022/07/18 05:46:28;;;;;;;6.55;4.68;;;;;;;21.08;72.03;98786.84;5012868;28;20029;-68
2022/07/18 05:48:54;;;;;;;6.97;4.63;;;;;;;20.94;71.84;98794.69;5012962;28;20116;-68
2022/07/18 05:51:19;;;;;;;10.80;4.32;;;;;;;20.75;73.21;98794.38;5013136;28;20363;-68
2022/07/18 05:53:44;;;;;;;9.57;4.22;;;;;;;20.58;74.84;98789.00;5012522;28;20022;-68
2022/07/18 05:56:10;;;;;;;7.68;5.20;;;;;;;20.78;74.07;98796.47;5013123;28;20108;-67
2022/07/18 05:58:35;;;;;;;5.45;4.38;;;;;;;21.08;72.37;98797.19;5012847;28;20022;-67
2022/07/18 06:01:01;;;;;;;6.22;4.47;;;;;;;21.53;71.92;98800.78;4995765;28;20049;-69
2022/07/18 06:03:26;;;;;;;7.97;4.63;;;;;;;21.71;69.15;98798.56;5012759;28;20034;-69
2022/07/18 06:05:51;;;;;;;7.80;4.43;;;;;;;21.64;68.80;98801.94;5012924;28;20106;-69
2022/07/18 06:08:17;;;;;;;6.45;4.28;;;;;;;21.39;69.49;98802.25;5012723;28;20058;-69
2022/07/18 06:10:42;;;;;;;6.32;4.20;;;;;;;21.60;68.29;98803.81;5012772;28;20038;-69
2022/07/18 06:13:08;;;;;;;8.52;4.63;;;;;;;21.75;68.07;98803.09;5012778;28;20037;-69
2022/07/18 06:15:33;;;;;;;8.52;4.47;;;;;;;21.98;67.72;98803.50;5012574;28;20474;-69
2022/07/18 06:17:59;;;;;;;7.70;4.80;;;;;;;22.18;65.66;98810.88;5012453;28;20083;-69
2022/07/18 06:20:24;;;;;;;8.15;5.05;;;;;;;22.22;66.59;98809.03;5012357;28;20037;-69
2022/07/18 06:22:50;;;;;;;6.78;4.28;;;;;;;22.40;65.38;98796.44;5012413;28;20117;-69
2022/07/18 06:25:15;;;;;;;9.38;4.32;;;;;;;22.74;64.89;98800.66;5012317;28;20034;-69
2022/07/18 06:27:41;;;;;;;6.32;4.13;;;;;;;22.92;61.21;98793.63;5012315;28;20040;-69
2022/07/18 06:30:09;;;;;;;8.02;4.65;;;;;;;23.01;63.55;98793.47;5012366;28;20026;-69
2022/07/18 06:32:34;;;;;;;6.25;4.30;;;;;;;22.89;63.45;98802.72;5012656;28;20028;-69
2022/07/18 06:34:59;;;;;;;7.30;4.32;;;;;;;23.12;63.47;98793.75;5012025;28;20413;-69
2022/07/18 06:37:25;;;;;;;9.40;4.20;;;;;;;23.40;61.43;98792.56;5012106;28;20072;-68
2022/07/18 06:39:50;;;;;;;7.35;4.45;;;;;;;23.31;61.43;98793.84;5012244;28;20026;-69
2022/07/18 06:42:15;;;;;;;6.78;4.53;;;;;;;23.23;62.37;98790.09;5012630;28;20076;-69
2022/07/18 06:44:41;;;;;;;6.32;4.28;;;;;;;22.92;62.85;98803.97;5013239;28;20516;-69
2022/07/18 06:47:06;;;;;;;8.63;5.20;;;;;;;22.81;62.20;98802.84;5014734;28;20029;-69
2022/07/18 06:49:31;;;;;;;6.35;4.28;;;;;;;22.94;62.83;98794.06;5012216;28;20430;-69
2022/07/18 06:51:57;;;;;;;6.65;4.47;;;;;;;23.39;61.42;98785.38;5012362;28;20052;-69
2022/07/18 06:54:27;;;;;;;6.97;4.25;;;;;;;23.61;60.44;98791.50;5012207;28;20383;-69
2022/07/18 06:56:52;;;;;;;7.43;4.10;;;;;;;23.87;58.79;98800.16;5012101;28;20036;-69
2022/07/18 06:59:18;;;;;;;4.70;3.30;;;;;;;24.23;58.33;98796.22;5012205;28;20022;-69
2022/07/18 07:01:43;;;;;;;4.80;3.72;;;;;;;24.40;57.23;98796.59;5012419;28;20037;-69
2022/07/18 07:04:08;;;;;;;5.45;4.00;;;;;;;24.43;55.30;98800.69;5011942;28;20981;-69
2022/07/18 07:06:34;;;;;;;5.13;3.75;;;;;;;24.19;55.36;98790.53;5013351;28;20026;-70
2022/07/18 07:08:59;;;;;;;10.52;3.88;;;;;;;24.26;53.81;98793.50;5014662;28;20175;-69
2022/07/18 07:11:24;;;;;;;6.10;3.28;;;;;;;24.40;53.83;98795.81;5013892;28;20029;-70
2022/07/18 07:13:50;;;;;;;4.45;3.60;;;;;;;24.37;53.58;98797.34;5012168;28;20513;-69
2022/07/18 07:16:15;;;;;;;8.70;4.60;;;;;;;24.34;54.27;98800.09;5011912;28;20378;-69
2022/07/18 07:18:40;;;;;;;5.57;3.50;;;;;;;24.25;54.13;98794.66;5011739;28;20034;-69
2022/07/18 07:21:06;;;;;;;7.95;4.20;;;;;;;24.13;54.79;98786.41;5011771;28;20034;-69
2022/07/18 07:23:31;;;;;;;6.90;4.10;;;;;;;24.40;54.00;98793.81;5011426;28;20033;-69
2022/07/18 07:25:57;;;;;;;7.82;3.78;;;;;;;24.52;53.83;98796.50;5011527;28;20113;-69
2022/07/18 07:28:22;;;;;;;9.07;3.83;;;;;;;24.69;52.21;98798.03;4993625;28;20057;-69
2022/07/18 07:30:47;;;;;;;7.07;3.75;;;;;;;25.15;50.53;98801.81;5011525;28;20112;-70
2022/07/18 07:33:13;;;;;;;4.82;3.55;;;;;;;25.10;50.08;98790.91;5011299;28;20520;-69
2022/07/18 07:35:38;;;;;;;5.28;3.65;;;;;;;24.94;48.61;98792.97;5010542;28;20519;-69
2022/07/18 07:38:03;;;;;;;4.72;3.72;;;;;;;25.00;49.60;98797.09;5010581;28;20484;-69
2022/07/18 07:40:29;;;;;;;4.78;3.13;;;;;;;25.11;49.54;98798.13;5010567;28;20493;-69
2022/07/18 07:43:09;;;;;;;6.25;4.15;;;;;;;25.21;48.91;98794.72;5010622;28;20030;-69
2022/07/18 07:45:35;;;;;;;4.97;3.63;;;;;;;25.26;49.71;98788.81;5008320;28;20064;-69
2022/07/18 07:48:00;;;;;;;5.25;3.65;;;;;;;25.53;48.36;98784.13;5010341;28;20062;-70
2022/07/18 07:50:26;;;;;;;5.15;3.50;;;;;;;25.19;48.79;98788.66;5010469;28;20053;-70
2022/07/18 07:52:51;;;;;;;6.28;3.50;;;;;;;25.34;48.89;98792.56;5010217;28;20364;-70
2022/07/18 07:55:19;;;;;;;7.43;3.55;;;;;;;25.37;47.15;98781.41;4994693;28;20072;-70
2022/07/18 07:57:45;;;;;;;5.00;3.45;;;;;;;25.70;46.17;98785.59;5008845;28;20525;-68
2022/07/18 08:00:10;;;;;;;3.88;2.80;;;;;;;25.49;45.65;98786.88;5007852;28;20042;-69
2022/07/18 08:02:36;;;;;;;5.80;3.03;;;;;;;25.77;44.92;98780.13;5008100;28;20034;-70
2022/07/18 08:05:02;;;;;;;4.07;2.78;;;;;;;25.95;43.42;98782.03;5007376;28;20030;-69
2022/07/18 08:07:31;;;;;;;4.95;3.25;;;;;;;26.29;42.70;98774.56;5007179;28;20020;-71
2022/07/18 08:09:56;;;;;;;4.40;3.40;;;;;;;26.82;41.83;98771.66;5007398;28;20041;-69
2022/07/18 08:12:21;;;;;;;4.80;3.42;;;;;;;27.75;40.79;98760.22;5006813;28;20030;-70
2022/07/18 08:14:47;;;;;;;3.97;2.72;;;;;;;29.17;36.91;98762.63;5007594;28;20037;-69
2022/07/18 08:17:12;;;;;;;5.10;2.90;;;;;;;30.02;34.24;98759.91;5008604;28;20021;-70
2022/07/18 08:19:37;;;;;;;4.13;2.70;;;;;;;29.56;34.26;98759.91;5007131;28;20501;-69
2022/07/18 08:22:03;;;;;;;4.10;2.63;;;;;;;28.75;34.40;98757.69;5003756;28;20030;-70
2022/07/18 08:24:28;;;;;;;5.63;2.67;;;;;;;29.37;32.92;98771.56;5009310;28;20283;-70
2022/07/18 08:26:53;;;;;;;4.72;2.97;;;;;;;29.70;32.58;98772.00;5006920;28;20034;-70
2022/07/18 08:29:19;;;;;;;3.70;2.80;;;;;;;29.71;31.89;98776.44;5010253;28;20412;-69
2022/07/18 08:31:44;;;;;;;10.85;3.20;;;;;;;29.98;31.49;98771.22;5010553;28;20386;-70
2022/07/18 08:34:09;;;;;;;3.97;2.50;;;;;;;30.23;31.34;98769.16;4992166;28;20479;-68
2022/07/18 08:36:34;;;;;;;4.55;2.85;;;;;;;28.54;34.26;98758.34;4972499;28;1097930;-69
2022/07/18 08:39:00;;;;;;;4.90;2.85;;;;;;;28.92;34.56;98761.75;5010666;28;20096;-69
2022/07/18 08:41:27;;;;;;;4.05;2.97;;;;;;;28.28;34.69;98763.44;5011310;28;20029;-69
2022/07/18 08:43:53;;;;;;;6.63;3.15;;;;;;;27.99;34.41;98765.22;5012922;28;20025;-70
2022/07/18 08:46:21;;;;;;;4.70;3.00;;;;;;;27.95;34.71;98758.75;5013465;28;20125;-70
2022/07/18 08:48:47;;;;;;;4.05;2.83;;;;;;;28.32;35.11;98762.25;5013221;28;20367;-70
2022/07/18 08:51:13;;;;;;;4.93;2.80;;;;;;;28.42;34.70;98760.69;5017276;28;20511;-70
2022/07/18 08:53:38;;;;;;;5.07;3.20;;;;;;;28.10;35.12;98752.84;5020040;28;20054;-70
2022/07/18 08:56:05;;;;;;;5.57;2.85;;;;;;;27.59;36.54;98747.25;5020976;28;20030;-71
2022/07/18 08:58:33;;;;;;;4.97;2.70;;;;;;;28.49;35.77;98752.28;5018935;28;20026;-69
2022/07/18 09:00:59;;;;;;;5.55;3.08;;;;;;;27.88;35.54;98744.66;5014916;28;20014;-70
2022/07/18 09:03:24;;;;;;;5.80;3.00;;;;;;;28.05;35.42;98744.78;5013405;28;20363;-70
2022/07/18 09:06:10;;;;;;;6.53;2.90;;;;;;;28.41;35.05;98748.63;5012657;28;20499;-70
2022/07/18 09:08:38;;;;;;;4.28;2.70;;;;;;;28.73;33.19;98748.78;5012389;28;20026;-71
2022/07/18 09:11:08;;;;;;;5.25;3.28;;;;;;;28.32;33.29;98744.56;5013780;28;20030;-70
2022/07/18 09:13:34;;;;;;;3.20;2.63;;;;;;;28.37;33.30;98742.19;5013654;28;20028;-70
2022/07/18 09:16:08;;;;;;;4.10;2.90;;;;;;;28.15;34.32;98735.63;5013981;28;20038;-70
2022/07/18 09:18:39;;;;;;;3.63;2.75;;;;;;;27.88;35.00;98734.19;5012969;28;20386;-70
2022/07/18 09:21:07;;;;;;;5.40;3.40;;;;;;;27.61;35.92;98727.97;5012232;28;20038;-69
2022/07/18 09:23:36;;;;;;;3.67;2.70;;;;;;;28.19;35.06;98732.84;5012055;28;20112;-70
2022/07/18 09:26:03;;;;;;;3.35;2.60;;;;;;;27.33;36.54;98727.69;5012797;28;20022;-70
2022/07/18 09:28:29;;;;;;;3.72;2.80;;;;;;;27.62;35.99;98729.59;5010916;28;20041;-71
2022/07/18 09:30:55;;;;;;;4.65;2.55;;;;;;;28.05;35.76;98730.72;5010731;28;20029;-70
2022/07/18 09:33:21;;;;;;;3.97;2.78;;;;;;;27.43;36.19;98729.00;5011623;28;20025;-69
2022/07/18 09:35:54;;;;;;;4.90;2.58;;;;;;;27.49;35.56;98719.03;5010918;28;20092;-70
2022/07/18 09:38:21;;;;;;;5.18;2.80;;;;;;;27.36;35.43;98732.53;5011330;28;20030;-69
2022/07/18 09:40:52;;;;;;;3.42;2.58;;;;;;;27.51;35.75;98717.44;5010957;28;20149;-69
2022/07/18 09:43:23;;;;;;;3.58;2.65;;;;;;;27.73;35.26;98711.97;5008826;28;20482;-69
2022/07/18 09:45:55;;;;;;;4.65;2.78;;;;;;;28.08;35.25;98715.88;5006833;28;20025;-69
2022/07/18 09:48:22;;;;;;;4.78;2.50;;;;;;;28.58;33.82;98719.75;5010698;28;20407;-70
2022/07/18 09:50:55;;;;;;;5.15;2.88;;;;;;;27.58;34.26;98723.13;5010348;28;20025;-71
2022/07/18 09:53:26;;;;;;;8.75;2.50;;;;;;;27.55;34.12;98729.53;5004379;28;20032;-69
2022/07/18 09:55:51;;;;;;;3.20;2.58;;;;;;;27.10;34.05;98719.41;5008647;28;20026;-70
2022/07/18 09:58:25;;;;;;;3.43;2.80;;;;;;;27.80;34.10;98721.28;5010411;28;20034;-68
2022/07/18 10:00:52;;;;;;;3.30;2.70;;;;;;;28.44;33.21;98719.69;5007676;28;20283;-69
2022/07/18 10:03:19;;;;;;;3.38;2.55;;;;;;;28.09;33.37;98725.13;5007425;28;20022;-69
2022/07/18 10:05:46;;;;;;;3.65;2.50;;;;;;;27.30;34.00;98720.03;5006827;28;20030;-69
2022/07/18 10:08:14;;;;;;;2.90;2.47;;;;;;;27.79;33.90;98701.97;5006484;28;20080;-68
2022/07/18 10:10:47;;;;;;;3.38;2.50;;;;;;;28.49;33.03;98698.78;5007545;28;20046;-72
2022/07/18 10:13:14;;;;;;;4.55;2.67;;;;;;;28.50;31.99;98704.03;5008392;28;20925;-69
2022/07/18 10:15:42;;;;;;;3.47;2.50;;;;;;;28.43;32.56;98709.63;5004795;28;20092;-69
2022/07/18 10:18:13;;;;;;;6.78;2.80;;;;;;;28.12;32.14;98701.81;5008176;28;20038;-68
2022/07/18 10:20:45;;;;;;;4.47;2.75;;;;;;;28.14;32.66;98696.59;5008245;28;20041;-68
2022/07/18 10:23:24;;;;;;;3.92;2.70;;;;;;;27.35;32.74;98685.13;5007306;28;20030;-68
2022/07/18 10:26:15;;;;;;;3.85;2.95;;;;;;;28.16;31.93;98694.22;5007153;28;20030;-69
2022/07/18 10:28:55;;;;;;;3.58;2.38;;;;;;;28.08;32.47;98696.16;5008305;28;20095;-68
2022/07/18 10:31:58;;;;;;;4.47;2.80;;;;;;;27.93;32.05;98694.44;5008261;28;20030;-67
2022/07/18 10:34:31;;;;;;;4.43;2.67;;;;;;;28.06;31.58;98687.31;5005455;28;20033;-70
2022/07/18 10:37:00;;;;;;;3.95;2.70;;;;;;;28.29;31.23;98684.22;4992077;28;20121;-68
2022/07/18 10:39:34;;;;;;;4.05;2.65;;;;;;;28.47;31.49;98673.84;5008080;28;20037;-68
2022/07/18 10:42:01;;;;;;;5.22;2.80;;;;;;;29.03;31.40;98675.22;5008284;28;20039;-69
2022/07/18 10:44:29;;;;;;;5.05;3.10;;;;;;;29.04;31.93;98674.03;5006890;28;20399;-70
2022/07/18 10:47:12;;;;;;;10.35;2.50;;;;;;;28.78;32.61;98680.00;5007998;28;20036;-70
2022/07/18 10:49:52;;;;;;;3.80;2.67;;;;;;;28.78;31.61;98683.63;5008287;28;20120;-69
2022/07/18 10:52:27;;;;;;;4.07;2.97;;;;;;;28.49;30.23;98677.06;5005619;28;20493;-70
2022/07/18 10:55:04;;;;;;;4.32;2.88;;;;;;;28.50;31.35;98675.06;5006697;28;20475;-69
2022/07/18 10:57:29;;;;;;;6.97;2.97;;;;;;;28.67;30.76;98675.16;5007253;28;20411;-69
2022/07/18 11:00:01;;;;;;;4.28;3.03;;;;;;;29.16;29.74;98671.59;5007572;28;20023;-70
2022/07/18 11:03:06;;;;;;;5.70;2.67;;;;;;;28.61;30.84;98667.44;5007813;28;20097;-69
2022/07/18 11:05:33;;;;;;;2.80;2.40;;;;;;;28.81;30.87;98662.31;4978737;28;20089;-68
2022/07/18 11:08:01;;;;;;;4.55;2.47;;;;;;;28.72;30.84;98661.88;4996411;28;20064;-70
2022/07/18 11:10:49;;;;;;;4.30;2.78;;;;;;;28.14;31.62;98658.00;5013431;28;20053;-69
2022/07/18 11:13:33;;;;;;;3.78;2.85;;;;;;;27.99;31.34;98655.47;5007323;28;20029;-69
2022/07/18 11:16:06;;;;;;;3.60;2.60;;;;;;;28.36;31.40;98644.03;5006519;28;20054;-68
2022/07/18 11:18:52;;;;;;;3.50;2.80;;;;;;;28.39;30.71;98637.59;5008833;28;20475;-68
2022/07/18 11:21:18;;;;;;;3.35;2.30;;;;;;;29.00;30.22;98639.41;5008732;28;20532;-69
2022/07/18 11:23:47;;;;;;;3.22;2.53;;;;;;;28.80;30.93;98638.97;5008220;28;20515;-68
2022/07/18 11:26:23;;;;;;;7.22;3.15;;;;;;;28.34;31.39;98635.19;5008170;28;20646;-69
2022/07/18 11:28:57;;;;;;;2.95;2.17;;;;;;;28.09;32.42;98632.25;5009028;28;20034;-69
2022/07/18 11:31:22;;;;;;;3.67;2.80;;;;;;;27.89;32.37;98630.91;5009222;28;20393;-69